createdAt,value
2018-01-16T00:02:00.487Z,97863.55
2018-01-16T00:04:29.797Z,97871.48
2018-01-16T00:06:59.832Z,97869.47
2018-01-16T00:09:29.805Z,97868.53
2018-01-16T00:11:58.990Z,97868.15
2018-01-16T00:14:28.249Z,97871.23
2018-01-16T00:16:58.208Z,97869.11
2018-01-16T00:19:27.410Z,97874.30
2018-01-16T00:21:56.610Z,97873.88
2018-01-16T00:24:25.829Z,97880.63
2018-01-16T00:26:55.067Z,97891.04
2018-01-16T00:29:24.295Z,97895.14
2018-01-16T00:31:53.478Z,97880.87
2018-01-16T00:34:22.686Z,97895.80
2018-01-16T00:36:51.886Z,97903.72
2018-01-16T00:39:21.255Z,97892.95
2018-01-16T00:41:50.506Z,97908.25
2018-01-16T00:44:19.712Z,97892.09
2018-01-16T00:46:48.927Z,97905.16
2018-01-16T00:49:18.955Z,97895.55
2018-01-16T00:51:48.917Z,97890.17
2018-01-16T00:54:18.208Z,97903.53
2018-01-16T00:56:47.416Z,97903.47
2018-01-16T00:59:16.607Z,97910.27
2018-01-16T01:01:45.907Z,97909.55
2018-01-16T01:04:15.126Z,97926.27
2018-01-16T01:06:44.391Z,97934.91
2018-01-16T01:09:14.417Z,97935.45
2018-01-16T01:11:43.623Z,97938.07
2018-01-16T01:14:12.903Z,97946.32
2018-01-16T01:16:42.180Z,97943.59
2018-01-16T01:19:11.416Z,97939.64
2018-01-16T01:21:40.746Z,97946.36
2018-01-16T01:24:10.738Z,97969.72
2018-01-16T01:26:39.941Z,97960.39
2018-01-16T01:29:10.709Z,97960.33
2018-01-16T01:31:39.906Z,97969.18
2018-01-16T01:34:09.126Z,97963.52
2018-01-16T01:36:38.357Z,97972.39
2018-01-16T01:39:07.553Z,97969.09
2018-01-16T01:41:36.767Z,97974.25
2018-01-16T01:44:05.994Z,97968.77
2018-01-16T01:46:35.233Z,97961.44
2018-01-16T01:49:13.215Z,97969.72
2018-01-16T01:51:42.411Z,97961.27
2018-01-16T01:54:11.595Z,97958.17
2018-01-16T01:56:40.806Z,97932.53
2018-01-16T01:59:10.015Z,97950.25
2018-01-16T02:01:39.249Z,97943.80
2018-01-16T02:04:08.435Z,97950.49
2018-01-16T02:06:37.625Z,97945.42
2018-01-16T02:09:06.818Z,97940.09
2018-01-16T02:11:36.007Z,97940.33
2018-01-16T02:14:05.247Z,97925.27
2018-01-16T02:16:35.278Z,97932.59
2018-01-16T02:19:04.844Z,97931.30
2018-01-16T02:21:34.066Z,97920.63
2018-01-16T02:24:04.060Z,97922.36
2018-01-16T02:26:33.230Z,97922.72
2018-01-16T02:29:02.430Z,97925.42
2018-01-16T02:31:31.734Z,97928.13
2018-01-16T02:34:00.934Z,97922.81
2018-01-16T02:36:30.151Z,97919.99
2018-01-16T02:38:59.366Z,97901.52
2018-01-16T02:41:28.546Z,97901.97
2018-01-16T02:43:57.779Z,97890.03
2018-01-16T02:46:27.737Z,97894.29
2018-01-16T02:48:57.090Z,97872.91
2018-01-16T02:51:27.043Z,97873.76
2018-01-16T02:53:56.479Z,97879.66
2018-01-16T02:56:25.790Z,97880.20
2018-01-16T02:58:55.042Z,97873.03
2018-01-16T03:01:24.236Z,97867.28
2018-01-16T03:03:53.462Z,97865.03
2018-01-16T03:06:24.081Z,97855.38
2018-01-16T03:08:53.298Z,97857.41
2018-01-16T03:11:22.675Z,97854.34
2018-01-16T03:13:52.098Z,97856.92
2018-01-16T03:16:21.291Z,97859.44
2018-01-16T03:18:50.486Z,97855.00
2018-01-16T03:21:19.690Z,97851.94
2018-01-16T03:23:50.418Z,97854.38
2018-01-16T03:26:19.620Z,97850.45
2018-01-16T03:28:48.836Z,97852.70
2018-01-16T03:31:18.062Z,97838.22
2018-01-16T03:33:48.115Z,97841.55
2018-01-16T03:36:18.086Z,97831.45
2018-01-16T03:38:48.075Z,97832.17
2018-01-16T03:41:17.301Z,97826.78
2018-01-16T03:43:47.261Z,97815.78
2018-01-16T03:46:16.479Z,97822.47
2018-01-16T03:48:45.675Z,97818.09
2018-01-16T03:51:14.869Z,97818.03
2018-01-16T03:53:44.074Z,97814.77
2018-01-16T03:56:13.286Z,97800.94
2018-01-16T03:58:42.506Z,97803.30
2018-01-16T04:01:11.711Z,97805.05
2018-01-16T04:03:40.902Z,97796.82
2018-01-16T04:06:10.110Z,97789.45
2018-01-16T04:08:39.318Z,97793.89
2018-01-16T04:11:08.559Z,97788.67
2018-01-16T04:13:37.735Z,97783.87
2018-01-16T04:16:07.405Z,97774.84
2018-01-16T04:18:36.611Z,97776.84
2018-01-16T04:21:05.925Z,97773.01
2018-01-16T04:23:35.196Z,97770.25
2018-01-16T04:26:04.470Z,97765.97
2018-01-16T04:28:33.624Z,97764.08
2018-01-16T04:31:02.822Z,97762.21
2018-01-16T04:33:32.065Z,97755.95
2018-01-16T04:36:02.176Z,97747.47
2018-01-16T04:38:31.365Z,97758.45
2018-01-16T04:41:02.207Z,97771.55
2018-01-16T04:43:32.178Z,97752.55
2018-01-16T04:46:01.386Z,97757.52
2018-01-16T04:48:30.574Z,97738.05
2018-01-16T04:50:59.786Z,97747.02
2018-01-16T04:53:29.008Z,97740.58
2018-01-16T04:55:58.208Z,97740.86
2018-01-16T04:58:27.421Z,97730.11
2018-01-16T05:00:57.405Z,97729.78
2018-01-16T05:03:26.604Z,97731.44
2018-01-16T05:05:55.947Z,97727.88
2018-01-16T05:08:25.890Z,97732.45
2018-01-16T05:10:55.085Z,97721.14
2018-01-16T05:13:24.328Z,97728.17
2018-01-16T05:15:53.562Z,97717.96
2018-01-16T05:18:22.751Z,97734.34
2018-01-16T05:20:51.969Z,97728.20
2018-01-16T05:23:21.177Z,97735.81
2018-01-16T05:25:50.381Z,97728.35
2018-01-16T05:28:19.607Z,97719.36
2018-01-16T05:30:50.295Z,97726.06
2018-01-16T05:33:19.488Z,97719.44
2018-01-16T05:35:48.673Z,97720.28
2018-01-16T05:38:17.887Z,97723.11
2018-01-16T05:40:47.095Z,97723.22
2018-01-16T05:43:16.287Z,97715.73
2018-01-16T05:45:45.511Z,97716.38
2018-01-16T05:48:14.767Z,97719.28
2018-01-16T05:50:43.994Z,97718.95
2018-01-16T05:53:13.220Z,97733.30
2018-01-16T05:55:42.395Z,97746.78
2018-01-16T05:58:11.598Z,97748.80
2018-01-16T06:00:40.847Z,97747.50
2018-01-16T06:03:10.039Z,97752.73
2018-01-16T06:05:39.269Z,97742.16
2018-01-16T06:08:08.478Z,97736.67
2018-01-16T06:10:37.667Z,97736.73
2018-01-16T06:13:06.882Z,97741.30
2018-01-16T06:15:37.628Z,97734.43
2018-01-16T06:18:06.823Z,97727.45
2018-01-16T06:20:36.119Z,97730.72
2018-01-16T06:23:05.305Z,97730.30
2018-01-16T06:25:34.538Z,97725.19
2018-01-16T06:28:04.518Z,97734.31
2018-01-16T06:30:33.730Z,97715.98
2018-01-16T06:33:02.964Z,97719.12
2018-01-16T06:35:33.199Z,97732.06
2018-01-16T06:38:02.598Z,97717.96
2018-01-16T06:40:31.782Z,97727.36
2018-01-16T06:43:01.804Z,97707.03
2018-01-16T06:45:31.039Z,97708.67
2018-01-16T06:48:00.546Z,97708.40
2018-01-16T06:50:29.837Z,97701.02
2018-01-16T06:52:59.025Z,97690.89
2018-01-16T06:55:28.395Z,97699.66
2018-01-16T06:57:58.544Z,97696.58
2018-01-16T07:00:27.754Z,97693.08
2018-01-16T07:02:56.947Z,97703.31
2018-01-16T07:05:26.212Z,97706.82
2018-01-16T07:07:56.234Z,97714.22
2018-01-16T07:10:25.410Z,97711.91
2018-01-16T07:12:55.415Z,97714.88
2018-01-16T07:15:24.690Z,97714.91
2018-01-16T07:17:53.982Z,97707.11
2018-01-16T07:20:23.185Z,97709.80
2018-01-16T07:22:52.504Z,97696.71
2018-01-16T07:25:21.754Z,97688.03
2018-01-16T07:27:50.945Z,97714.91
2018-01-16T07:30:20.187Z,97731.00
2018-01-16T07:32:49.382Z,97723.17
2018-01-16T07:35:20.644Z,97723.02
2018-01-16T07:37:50.761Z,97726.69
2018-01-16T07:40:20.043Z,97732.06
2018-01-16T07:42:49.924Z,97722.83
2018-01-16T07:45:19.150Z,97717.92
2018-01-16T07:47:48.355Z,97719.33
2018-01-16T07:50:17.550Z,97710.72
2018-01-16T07:52:46.758Z,97719.31
2018-01-16T07:55:15.977Z,97713.59
2018-01-16T07:57:45.955Z,97699.98
2018-01-16T08:00:15.157Z,97697.56
2018-01-16T08:02:44.380Z,97697.69
2018-01-16T08:05:14.440Z,97702.93
2018-01-16T08:07:43.658Z,97700.69
2018-01-16T08:10:12.837Z,97705.06
2018-01-16T08:12:42.055Z,97711.88
2018-01-16T08:15:11.265Z,97708.29
2018-01-16T08:17:40.460Z,97707.45
2018-01-16T08:20:09.671Z,97705.69
2018-01-16T08:22:39.726Z,97691.43
2018-01-16T08:25:09.715Z,97684.55
2018-01-16T08:27:39.697Z,97681.64
2018-01-16T08:30:08.948Z,97687.21
2018-01-16T08:32:38.210Z,97677.87
2018-01-16T08:35:07.435Z,97678.11
2018-01-16T08:37:37.474Z,97686.02
2018-01-16T08:40:06.697Z,97699.22
2018-01-16T08:42:35.925Z,97710.86
2018-01-16T08:45:05.131Z,97707.42
2018-01-16T08:47:34.363Z,97699.34
2018-01-16T08:50:03.568Z,97702.66
2018-01-16T08:52:32.750Z,97703.47
2018-01-16T08:55:02.018Z,97701.01
2018-01-16T08:57:31.224Z,97711.41
2018-01-16T09:00:01.294Z,97718.56
2018-01-16T09:02:30.523Z,97701.96
2018-01-16T09:04:59.791Z,97691.53
2018-01-16T09:07:29.038Z,97685.11
2018-01-16T09:09:58.227Z,97690.06
2018-01-16T09:12:27.406Z,97687.98
2018-01-16T09:14:56.632Z,97694.17
2018-01-16T09:17:25.826Z,97677.39
2018-01-16T09:19:55.805Z,97673.53
2018-01-16T09:22:24.998Z,97681.63
2018-01-16T09:24:54.219Z,97679.91
2018-01-16T09:27:23.438Z,97682.22
2018-01-16T09:29:52.632Z,97681.37
2018-01-16T09:32:22.772Z,97685.05
2018-01-16T09:34:51.960Z,97686.40
2018-01-16T09:37:21.929Z,97683.19
2018-01-16T09:39:51.117Z,97682.17
2018-01-16T09:42:21.027Z,97688.34
2018-01-16T09:44:50.244Z,97679.91
2018-01-16T09:47:19.429Z,97684.95
2018-01-16T09:49:48.662Z,97680.90
2018-01-16T09:52:17.847Z,97656.34
2018-01-16T09:54:47.046Z,97672.70
2018-01-16T09:57:16.502Z,97682.14
2018-01-16T09:59:45.703Z,97673.12
2018-01-16T10:02:14.930Z,97696.31
2018-01-16T10:04:44.144Z,97774.18
2018-01-16T10:07:13.375Z,97835.87
2018-01-16T10:09:42.589Z,97867.63
2018-01-16T10:12:11.801Z,97836.70
2018-01-16T10:14:41.000Z,97827.33
2018-01-16T10:17:10.227Z,97838.99
2018-01-16T10:19:40.177Z,97827.98
2018-01-16T10:22:09.395Z,97836.52
2018-01-16T10:24:38.610Z,97814.16
2018-01-16T10:27:07.818Z,97822.27
2018-01-16T10:29:37.014Z,97817.62
2018-01-16T10:32:06.244Z,97814.48
2018-01-16T10:34:35.488Z,97818.02
2018-01-16T10:37:04.687Z,97811.58
2018-01-16T10:39:33.925Z,97830.06
2018-01-16T10:42:03.111Z,97815.89
2018-01-16T10:44:32.343Z,97831.89
2018-01-16T10:47:02.304Z,97827.59
2018-01-16T10:49:32.751Z,97829.55
2018-01-16T10:52:01.937Z,97846.05
2018-01-16T10:54:31.162Z,97850.91
2018-01-16T10:57:01.182Z,97844.41
2018-01-16T10:59:31.200Z,97862.66
2018-01-16T11:02:01.186Z,97863.27
2018-01-16T11:04:30.462Z,97860.92
2018-01-16T11:06:59.699Z,97865.73
2018-01-16T11:09:28.934Z,97875.19
2018-01-16T11:11:58.146Z,97862.53
2018-01-16T11:14:27.373Z,97876.27
2018-01-16T11:16:56.672Z,97885.72
2018-01-16T11:19:25.865Z,97886.72
2018-01-16T11:21:55.078Z,97884.89
2018-01-16T11:24:24.286Z,97891.75
2018-01-16T11:26:53.522Z,97886.88
2018-01-16T11:29:22.715Z,97886.58
2018-01-16T11:31:52.979Z,97887.66
2018-01-16T11:34:22.207Z,97886.91
2018-01-16T11:36:53.080Z,97881.80
2018-01-16T11:39:23.034Z,97892.36
2018-01-16T11:41:52.244Z,97904.80
2018-01-16T11:44:21.462Z,97911.39
2018-01-16T11:46:51.462Z,97916.61
2018-01-16T11:49:21.450Z,97922.89
2018-01-16T11:51:50.739Z,97914.09
2018-01-16T11:54:20.747Z,97915.16
2018-01-16T11:56:49.951Z,97917.72
2018-01-16T11:59:19.884Z,97922.00
2018-01-16T12:01:49.088Z,97916.05
2018-01-16T12:04:18.292Z,97918.16
2018-01-16T12:06:47.519Z,97921.39
2018-01-16T12:09:18.102Z,97914.23
2018-01-16T12:11:47.279Z,97918.53
2018-01-16T12:14:16.555Z,97911.98
2018-01-16T12:16:45.768Z,97917.77
2018-01-16T12:19:14.972Z,97904.50
2018-01-16T12:21:45.144Z,97905.09
2018-01-16T12:24:14.321Z,97902.72
2018-01-16T12:26:43.575Z,97905.95
2018-01-16T12:29:12.838Z,97898.27
2018-01-16T12:31:42.055Z,97899.61
2018-01-16T12:34:12.058Z,97906.20
2018-01-16T12:36:43.028Z,97899.55
2018-01-16T12:39:13.005Z,97895.77
2018-01-16T12:41:43.718Z,97899.72
2018-01-16T12:44:12.976Z,97895.86
2018-01-16T12:46:42.166Z,97904.22
2018-01-16T12:49:11.362Z,97916.80
2018-01-16T12:51:40.592Z,97921.41
2018-01-16T12:54:09.802Z,97917.37
2018-01-16T12:56:39.012Z,97915.42
2018-01-16T12:59:08.215Z,97909.41
2018-01-16T13:01:37.399Z,97915.44
2018-01-16T13:04:06.684Z,97920.05
2018-01-16T13:06:35.887Z,97920.36
2018-01-16T13:09:05.091Z,97922.09
2018-01-16T13:11:34.351Z,97917.88
2018-01-16T13:14:03.577Z,97920.57
2018-01-16T13:16:32.946Z,97914.70
2018-01-16T13:19:03.128Z,97919.80
2018-01-16T13:21:32.312Z,97916.25
2018-01-16T13:24:01.943Z,97912.07
2018-01-16T13:26:31.967Z,97916.22
2018-01-16T13:29:01.954Z,97920.36
2018-01-16T13:31:31.152Z,97929.05
2018-01-16T13:34:01.888Z,97926.73
2018-01-16T13:36:31.874Z,97924.18
2018-01-16T13:39:01.086Z,97932.50
2018-01-16T13:41:30.332Z,97929.53
2018-01-16T13:43:59.567Z,97928.03
2018-01-16T13:46:28.845Z,97919.53
2018-01-16T13:48:59.521Z,97909.50
2018-01-16T13:51:30.231Z,97908.33
2018-01-16T13:53:59.507Z,97925.16
2018-01-16T13:56:28.807Z,97924.50
2018-01-16T13:58:58.052Z,97934.21
2018-01-16T14:01:27.291Z,97941.52
2018-01-16T14:03:56.472Z,97938.94
2018-01-16T14:06:26.638Z,97941.02
2018-01-16T14:08:55.891Z,97945.16
2018-01-16T14:11:25.855Z,97989.64
2018-01-16T14:13:55.107Z,97991.10
2018-01-16T14:16:25.644Z,97959.29
2018-01-16T14:18:55.611Z,97979.45
2018-01-16T14:21:24.866Z,97988.27
2018-01-16T14:23:54.074Z,98002.17
2018-01-16T14:26:23.310Z,97976.96
2018-01-16T14:28:52.562Z,97983.68
2018-01-16T14:31:21.760Z,97989.13
2018-01-16T14:33:51.036Z,97980.77
2018-01-16T14:36:20.275Z,97970.53
2018-01-16T14:38:49.550Z,97975.17
2018-01-16T14:41:18.848Z,97991.80
2018-01-16T14:43:48.850Z,97995.44
2018-01-16T14:46:18.843Z,97981.00
2018-01-16T14:48:48.091Z,97987.08
2018-01-16T14:51:18.059Z,97984.95
2018-01-16T14:53:47.285Z,97976.56
2018-01-16T14:56:17.284Z,97986.05
2018-01-16T14:58:46.512Z,97989.69
2018-01-16T15:01:15.722Z,97983.84
2018-01-16T15:03:45.084Z,97985.27
2018-01-16T15:06:14.297Z,97993.12
2018-01-16T15:08:43.514Z,97992.14
2018-01-16T15:11:12.739Z,97987.99
2018-01-16T15:13:42.277Z,98000.00
2018-01-16T15:16:12.295Z,97997.93
2018-01-16T15:18:41.504Z,97999.67
2018-01-16T15:21:11.460Z,97998.69
2018-01-16T15:23:40.682Z,97999.14
2018-01-16T15:26:10.757Z,98008.52
2018-01-16T15:28:40.019Z,98012.59
2018-01-16T15:31:09.202Z,98016.15
2018-01-16T15:33:38.651Z,98022.95
2018-01-16T15:36:07.807Z,98028.69
2018-01-16T15:38:37.027Z,98024.61
2018-01-16T15:41:06.251Z,98030.73
2018-01-16T15:43:35.450Z,98020.03
2018-01-16T15:46:04.634Z,98033.04
2018-01-16T15:48:33.866Z,98031.61
2018-01-16T15:51:03.056Z,98027.70
2018-01-16T15:53:32.382Z,98028.70
2018-01-16T15:56:01.625Z,98024.34
2018-01-16T15:58:30.836Z,98026.86
2018-01-16T16:01:00.072Z,98034.41
2018-01-16T16:03:29.242Z,98041.00
2018-01-16T16:05:58.485Z,98035.75
2018-01-16T16:08:28.459Z,98028.56
2018-01-16T16:10:57.761Z,98029.41
2018-01-16T16:13:27.794Z,98024.66
2018-01-16T16:15:57.157Z,98028.56
2018-01-16T16:18:26.408Z,98029.85
2018-01-16T16:20:55.629Z,98032.79
2018-01-16T16:23:25.623Z,98034.27
2018-01-16T16:25:55.013Z,98030.38
2018-01-16T16:28:24.292Z,98035.55
2018-01-16T16:30:53.517Z,98031.75
2018-01-16T16:33:22.823Z,98027.33
2018-01-16T16:35:52.042Z,98026.52
2018-01-16T16:38:22.106Z,98027.80
2018-01-16T16:40:51.351Z,98033.86
2018-01-16T16:43:22.027Z,98027.42
2018-01-16T16:45:51.281Z,98013.88
2018-01-16T16:48:20.594Z,98021.05
2018-01-16T16:50:50.584Z,98011.12
2018-01-16T16:53:19.811Z,98025.50
2018-01-16T16:55:49.041Z,98015.88
2018-01-16T16:58:18.223Z,98022.31
2018-01-16T17:00:47.454Z,98013.95
2018-01-16T17:03:16.839Z,98023.12
2018-01-16T17:05:46.055Z,98014.71
2018-01-16T17:08:15.277Z,98019.36
2018-01-16T17:10:44.518Z,98015.50
2018-01-16T17:13:13.729Z,98026.08
2018-01-16T17:15:42.984Z,98034.16
2018-01-16T17:18:12.963Z,98036.98
2018-01-16T17:20:42.159Z,98035.45
2018-01-16T17:23:11.383Z,98037.29
2018-01-16T17:25:41.349Z,98039.22
2018-01-16T17:28:10.602Z,98035.73
2018-01-16T17:30:40.577Z,98030.38
2018-01-16T17:33:09.787Z,98029.98
2018-01-16T17:35:39.009Z,98028.59
2018-01-16T17:38:08.981Z,98033.34
2018-01-16T17:40:38.185Z,98027.67
2018-01-16T17:43:09.183Z,98030.80
2018-01-16T17:45:38.461Z,98029.06
2018-01-16T17:48:08.623Z,98015.98
2018-01-16T17:50:37.863Z,98030.62
2018-01-16T17:53:07.132Z,98022.08
2018-01-16T17:55:36.347Z,98019.73
2018-01-16T17:58:05.647Z,98017.84
2018-01-16T18:00:34.863Z,98007.67
2018-01-16T18:03:04.952Z,98010.11
2018-01-16T18:05:34.355Z,98007.22
2018-01-16T18:08:03.623Z,98014.38
2018-01-16T18:10:32.841Z,98012.59
2018-01-16T18:13:02.105Z,98007.67
2018-01-16T18:15:32.059Z,98008.01
2018-01-16T18:18:01.347Z,98009.10
2018-01-16T18:20:30.539Z,98019.19
2018-01-16T18:22:59.765Z,98020.92
2018-01-16T18:25:29.158Z,98032.72
2018-01-16T18:27:58.390Z,98038.91
2018-01-16T18:30:28.371Z,98039.61
2018-01-16T18:32:57.623Z,98035.47
2018-01-16T18:35:27.620Z,98028.95
2018-01-16T18:37:57.664Z,98026.66
2018-01-16T18:40:26.880Z,98034.43
2018-01-16T18:42:57.902Z,98028.33
2018-01-16T18:45:27.122Z,98029.44
2018-01-16T18:47:56.341Z,98032.63
2018-01-16T18:50:25.558Z,98035.66
2018-01-16T18:52:54.785Z,98022.41
2018-01-16T18:55:24.824Z,98035.83
2018-01-16T18:57:54.122Z,98014.55
2018-01-16T19:00:24.074Z,98020.03
2018-01-16T19:02:53.297Z,98014.63
2018-01-16T19:05:23.306Z,98019.08
2018-01-16T19:07:52.531Z,98026.95
2018-01-16T19:10:22.502Z,98019.87
2018-01-16T19:12:52.504Z,98024.17
2018-01-16T19:15:21.731Z,98019.61
2018-01-16T19:17:51.698Z,98018.61
2018-01-16T19:20:20.972Z,98027.83
2018-01-16T19:22:50.192Z,98017.82
2018-01-16T19:25:19.407Z,98023.91
2018-01-16T19:27:48.628Z,98012.48
2018-01-16T19:30:18.619Z,98015.09
2018-01-16T19:32:47.861Z,98016.92
2018-01-16T19:35:17.153Z,98016.93
2018-01-16T19:37:46.372Z,98010.62
2018-01-16T19:40:16.403Z,98013.30
2018-01-16T19:42:45.644Z,98008.99
2018-01-16T19:45:14.828Z,98011.28
2018-01-16T19:47:44.117Z,98006.37
2018-01-16T19:50:15.798Z,98008.19
2018-01-16T19:52:45.175Z,98006.52
2018-01-16T19:55:14.403Z,97998.25
2018-01-16T19:57:43.619Z,98012.69
2018-01-16T20:00:13.608Z,98006.69
2018-01-16T20:02:42.810Z,98013.00
2018-01-16T20:05:13.579Z,98008.27
2018-01-16T20:07:43.699Z,98006.20
2018-01-16T20:10:13.697Z,98006.98
2018-01-16T20:12:44.491Z,98007.03
2018-01-16T20:15:13.721Z,97999.73
2018-01-16T20:17:43.708Z,97996.55
2018-01-16T20:20:12.934Z,97995.91
2018-01-16T20:22:42.938Z,97990.39
2018-01-16T20:25:12.144Z,97993.46
2018-01-16T20:27:41.576Z,97982.06
2018-01-16T20:30:11.606Z,97982.17
2018-01-16T20:32:40.814Z,97992.34
2018-01-16T20:35:10.028Z,97992.73
2018-01-16T20:37:39.265Z,98005.81
2018-01-16T20:40:08.654Z,98002.95
2018-01-16T20:42:37.919Z,97998.98
2018-01-16T20:45:07.893Z,97990.77
2018-01-16T20:47:37.907Z,98002.76
2018-01-16T20:50:07.251Z,98003.98
2018-01-16T20:52:36.459Z,97999.28
2018-01-16T20:55:05.732Z,97995.73
2018-01-16T20:57:34.939Z,97998.28
2018-01-16T21:00:04.154Z,98002.92
2018-01-16T21:02:33.367Z,98002.05
2018-01-16T21:05:02.583Z,97995.84
2018-01-16T21:07:32.577Z,97994.73
2018-01-16T21:10:01.875Z,98000.88
2018-01-16T21:12:31.230Z,97984.86
2018-01-16T21:15:00.469Z,97987.57
2018-01-16T21:17:29.682Z,97986.48
2018-01-16T21:19:59.018Z,97983.35
2018-01-16T21:22:28.235Z,97983.19
2018-01-16T21:24:57.485Z,97971.11
2018-01-16T21:27:26.726Z,97972.39
2018-01-16T21:29:55.982Z,97965.74
2018-01-16T21:32:25.978Z,97966.13
2018-01-16T21:34:55.195Z,97964.79
2018-01-16T21:37:24.489Z,97959.39
2018-01-16T21:39:53.755Z,97959.76
2018-01-16T21:42:23.863Z,97954.53
2018-01-16T21:44:53.089Z,97960.09
2018-01-16T21:47:22.392Z,97949.67
2018-01-16T21:49:51.631Z,97948.60
2018-01-16T21:52:20.879Z,97947.45
2018-01-16T21:54:50.877Z,97949.85
2018-01-16T21:57:20.085Z,97949.55
2018-01-16T21:59:49.338Z,97951.16
2018-01-16T22:02:20.400Z,97944.34
2018-01-16T22:04:49.638Z,97945.59
2018-01-16T22:07:18.896Z,97949.28
2018-01-16T22:09:48.090Z,97948.16
2018-01-16T22:12:17.366Z,97951.69
2018-01-16T22:14:46.615Z,97956.10
2018-01-16T22:17:15.843Z,97945.75
2018-01-16T22:19:45.092Z,97946.11
2018-01-16T22:22:14.419Z,97945.05
2018-01-16T22:24:43.636Z,97947.12
2018-01-16T22:27:13.645Z,97943.27
2018-01-16T22:29:43.696Z,97941.81
2018-01-16T22:32:12.958Z,97939.91
2018-01-16T22:34:42.243Z,97941.98
2018-01-16T22:37:11.480Z,97938.56
2018-01-16T22:39:40.706Z,97933.91
2018-01-16T22:42:09.969Z,97937.46
2018-01-16T22:44:39.205Z,97939.21
2018-01-16T22:47:08.405Z,97932.04
2018-01-16T22:49:37.650Z,97933.85
2018-01-16T22:52:06.870Z,97937.81
2018-01-16T22:54:36.846Z,97931.83
2018-01-16T22:57:06.098Z,97928.37
2018-01-16T22:59:35.318Z,97917.63
2018-01-16T23:02:04.555Z,97916.45
2018-01-16T23:04:33.784Z,97923.09
2018-01-16T23:07:03.785Z,97924.30
2018-01-16T23:09:32.982Z,97911.86
2018-01-16T23:12:03.167Z,97905.80
2018-01-16T23:14:32.468Z,97909.73
2018-01-16T23:17:02.516Z,97917.41
2018-01-16T23:19:31.700Z,97914.55
2018-01-16T23:22:00.927Z,97896.14
2018-01-16T23:24:30.872Z,97895.19
2018-01-16T23:27:00.104Z,97891.33
2018-01-16T23:29:29.302Z,97891.16
2018-01-16T23:31:58.558Z,97893.11
2018-01-16T23:34:27.769Z,97891.25
2018-01-16T23:36:57.015Z,97884.27
2018-01-16T23:39:27.739Z,97885.61
2018-01-16T23:41:56.938Z,97884.00
2018-01-16T23:44:26.158Z,97879.84
2018-01-16T23:46:55.399Z,97866.75
2018-01-16T23:49:24.662Z,97867.70
2018-01-16T23:51:54.626Z,97864.89
2018-01-16T23:54:23.868Z,97857.58
2018-01-16T23:56:53.035Z,97846.95
2018-01-16T23:59:22.237Z,97846.95
